createdAt,value
2019-02-20T00:01:46.269Z,1.97
2019-02-20T00:04:12.896Z,1.80
2019-02-20T00:06:39.726Z,2.07
2019-02-20T00:09:06.374Z,1.93
2019-02-20T00:11:32.937Z,1.97
2019-02-20T00:13:59.213Z,1.80
2019-02-20T00:16:25.523Z,1.87
2019-02-20T00:18:52.587Z,1.77
2019-02-20T00:21:19.237Z,2.00
2019-02-20T00:23:45.493Z,1.83
2019-02-20T00:26:12.065Z,1.67
2019-02-20T00:28:38.338Z,2.00
2019-02-20T00:31:04.613Z,1.70
2019-02-20T00:33:31.234Z,2.03
2019-02-20T00:35:57.498Z,1.73
2019-02-20T00:38:24.154Z,2.33
2019-02-20T00:40:50.777Z,2.00
2019-02-20T00:43:17.412Z,1.70
2019-02-20T00:45:56.593Z,1.87
2019-02-20T00:48:39.764Z,2.43
2019-02-20T00:51:10.925Z,2.40
2019-02-20T00:53:43.096Z,2.17
2019-02-20T00:56:09.625Z,2.33
2019-02-20T00:58:35.911Z,2.40
2019-02-20T01:01:02.476Z,2.43
2019-02-20T01:03:28.782Z,2.20
2019-02-20T01:05:55.054Z,2.37
2019-02-20T01:08:21.318Z,1.93
2019-02-20T01:10:47.932Z,2.20
2019-02-20T01:13:14.564Z,2.50
2019-02-20T01:15:41.210Z,2.87
2019-02-20T01:18:07.828Z,2.40
2019-02-20T01:20:34.118Z,2.57
2019-02-20T01:23:00.512Z,2.83
2019-02-20T01:25:26.766Z,2.30
2019-02-20T01:27:53.386Z,2.57
2019-02-20T01:30:19.710Z,2.60
2019-02-20T01:32:46.318Z,2.30
2019-02-20T01:40:04.708Z,2.50
2019-02-20T01:42:31.350Z,2.50
2019-02-20T01:44:57.972Z,2.70
2019-02-20T01:47:24.264Z,2.60
2019-02-20T01:49:50.879Z,2.60
2019-02-20T01:52:18.557Z,2.50
2019-02-20T01:54:44.849Z,2.60
2019-02-20T01:57:12.244Z,2.43
2019-02-20T01:59:38.520Z,2.67
2019-02-20T02:02:04.873Z,2.83
2019-02-20T02:04:31.159Z,3.00
2019-02-20T02:06:57.777Z,3.03
2019-02-20T02:09:24.541Z,2.73
2019-02-20T02:11:51.421Z,3.00
2019-02-20T02:14:18.074Z,3.20
2019-02-20T02:16:44.695Z,2.80
2019-02-20T02:19:11.343Z,2.90
2019-02-20T02:21:37.854Z,3.13
2019-02-20T02:24:04.158Z,2.57
2019-02-20T02:26:30.885Z,2.13
2019-02-20T02:28:57.158Z,3.00
2019-02-20T02:31:23.780Z,2.60
2019-02-20T02:33:50.399Z,2.63
2019-02-20T02:36:17.034Z,2.70
2019-02-20T02:38:43.661Z,2.80
2019-02-20T02:41:10.322Z,2.77
2019-02-20T02:43:36.569Z,2.60
2019-02-20T02:46:02.889Z,2.70
2019-02-20T02:48:29.157Z,2.90
2019-02-20T02:50:55.422Z,2.97
2019-02-20T02:53:30.458Z,2.50
2019-02-20T02:55:50.118Z,3.13
2019-02-20T02:58:16.374Z,3.10
2019-02-20T03:00:43.003Z,2.60
2019-02-20T03:03:09.282Z,2.80
2019-02-20T03:05:35.894Z,2.97
2019-02-20T03:08:02.569Z,3.03
2019-02-20T03:10:28.818Z,2.90
2019-02-20T03:12:55.114Z,3.10
2019-02-20T03:15:22.518Z,2.90
2019-02-20T03:17:48.825Z,2.53
2019-02-20T03:20:15.785Z,2.83
2019-02-20T03:22:42.411Z,3.07
2019-02-20T03:25:09.030Z,3.50
2019-02-20T03:27:35.651Z,2.90
2019-02-20T03:30:03.066Z,3.37
2019-02-20T03:32:29.887Z,3.50
2019-02-20T03:34:56.526Z,3.37
2019-02-20T03:37:23.141Z,3.37
2019-02-20T03:39:49.460Z,3.70
2019-02-20T03:42:15.706Z,3.50
2019-02-20T03:44:42.357Z,4.17
2019-02-20T03:47:08.613Z,4.07
2019-02-20T03:49:35.283Z,4.03
2019-02-20T03:52:01.908Z,4.03
2019-02-20T03:54:28.169Z,4.27
2019-02-20T03:56:55.019Z,4.53
2019-02-20T03:59:21.547Z,5.20
2019-02-20T04:01:48.201Z,4.87
2019-02-20T04:04:14.926Z,5.03
2019-02-20T04:06:41.593Z,5.10
2019-02-20T04:09:07.950Z,5.03
2019-02-20T04:11:34.606Z,5.33
2019-02-20T04:14:01.237Z,5.47
2019-02-20T04:16:27.859Z,5.67
2019-02-20T04:18:54.741Z,4.73
2019-02-20T04:21:21.206Z,5.10
2019-02-20T04:23:47.823Z,5.00
2019-02-20T04:26:14.450Z,4.30
2019-02-20T04:28:41.085Z,5.30
2019-02-20T04:31:07.366Z,5.23
2019-02-20T04:33:34.014Z,4.03
2019-02-20T04:36:00.637Z,5.50
2019-02-20T04:38:27.296Z,5.13
2019-02-20T04:40:54.686Z,5.00
2019-02-20T04:43:21.330Z,5.20
2019-02-20T04:45:47.951Z,4.67
2019-02-20T04:48:15.622Z,5.83
2019-02-20T04:50:41.878Z,5.27
2019-02-20T04:53:08.506Z,4.93
2019-02-20T04:55:34.779Z,4.93
2019-02-20T04:58:17.911Z,4.73
2019-02-20T05:00:44.763Z,4.73
2019-02-20T05:03:12.034Z,4.83
2019-02-20T05:05:38.683Z,4.40
2019-02-20T05:08:06.077Z,4.53
2019-02-20T05:10:32.370Z,5.90
2019-02-20T05:12:58.982Z,5.27
2019-02-20T05:15:25.649Z,4.50
2019-02-20T05:17:52.266Z,3.90
2019-02-20T05:20:18.935Z,4.63
2019-02-20T05:22:45.181Z,4.63
2019-02-20T05:25:11.851Z,4.77
2019-02-20T05:27:38.331Z,4.80
2019-02-20T05:30:06.155Z,4.60
2019-02-20T05:32:32.789Z,4.47
2019-02-20T05:34:59.309Z,4.37
2019-02-20T05:37:25.970Z,4.53
2019-02-20T05:39:52.237Z,4.70
2019-02-20T05:42:18.868Z,4.70
2019-02-20T05:44:45.233Z,3.97
2019-02-20T05:47:11.532Z,4.60
2019-02-20T05:49:38.169Z,5.20
2019-02-20T05:52:04.458Z,5.23
2019-02-20T05:54:34.564Z,5.27
2019-02-20T05:56:59.181Z,6.00
2019-02-20T05:59:25.800Z,5.43
2019-02-20T06:01:52.063Z,5.30
2019-02-20T06:04:18.334Z,5.70
2019-02-20T06:06:44.946Z,5.40
2019-02-20T06:09:11.877Z,5.47
2019-02-20T06:11:38.131Z,5.73
2019-02-20T06:14:04.439Z,5.73
2019-02-20T06:16:30.732Z,5.30
2019-02-20T06:18:57.345Z,5.83
2019-02-20T06:21:23.996Z,5.50
2019-02-20T06:23:50.913Z,5.53
2019-02-20T06:26:17.589Z,5.80
2019-02-20T06:28:44.223Z,5.27
2019-02-20T06:31:11.109Z,5.83
2019-02-20T06:33:37.739Z,5.50
2019-02-20T06:36:04.398Z,5.27
2019-02-20T06:38:32.764Z,4.93
2019-02-20T06:40:59.414Z,5.73
2019-02-20T06:43:26.024Z,5.90
2019-02-20T06:45:52.672Z,6.23
2019-02-20T06:48:19.298Z,6.20
2019-02-20T06:53:11.755Z,5.40
2019-02-20T06:55:38.028Z,5.60
2019-02-20T06:58:04.669Z,5.47
2019-02-20T07:00:30.930Z,6.07
2019-02-20T07:02:57.594Z,5.13
2019-02-20T07:05:28.931Z,6.37
2019-02-20T07:08:14.020Z,4.90
2019-02-20T07:10:48.327Z,5.20
2019-02-20T07:13:15.608Z,4.87
2019-02-20T07:15:46.885Z,4.73
2019-02-20T07:18:15.751Z,4.87
2019-02-20T07:20:56.210Z,5.30
2019-02-20T07:23:30.561Z,5.00
2019-02-20T07:26:07.511Z,4.80
2019-02-20T07:28:38.280Z,4.97
2019-02-20T07:31:05.210Z,4.83
2019-02-20T07:33:31.490Z,4.40
2019-02-20T07:35:58.137Z,4.53
2019-02-20T07:38:24.761Z,5.03
2019-02-20T07:40:52.830Z,4.47
2019-02-20T07:43:19.450Z,4.77
2019-02-20T07:45:46.106Z,4.47
2019-02-20T07:48:12.725Z,5.07
2019-02-20T07:50:39.441Z,4.50
2019-02-20T07:53:05.717Z,4.90
2019-02-20T07:55:32.023Z,4.80
2019-02-20T07:57:58.670Z,4.63
2019-02-20T08:00:25.659Z,5.83
2019-02-20T08:02:52.287Z,5.80
2019-02-20T08:05:18.906Z,5.37
2019-02-20T08:07:45.529Z,5.57
2019-02-20T08:10:12.243Z,5.97
2019-02-20T08:12:38.877Z,5.67
2019-02-20T08:15:07.037Z,5.97
2019-02-20T08:17:33.301Z,6.23
2019-02-20T08:19:59.565Z,6.30
2019-02-20T08:22:26.218Z,6.57
2019-02-20T08:24:53.085Z,6.20
2019-02-20T08:27:19.370Z,7.23
2019-02-20T08:29:45.997Z,7.30
2019-02-20T08:32:12.298Z,5.93
2019-02-20T08:34:40.878Z,6.53
2019-02-20T08:37:07.618Z,6.50
2019-02-20T08:39:34.259Z,6.20
2019-02-20T08:42:00.877Z,8.27
2019-02-20T08:44:27.257Z,6.83
2019-02-20T08:46:53.859Z,8.18
2019-02-20T08:49:21.435Z,6.57
2019-02-20T08:51:49.877Z,6.43
2019-02-20T08:54:16.411Z,5.67
2019-02-20T08:56:43.329Z,8.25
2019-02-20T08:59:10.214Z,7.00
2019-02-20T09:01:36.834Z,5.53
2019-02-20T09:04:03.629Z,5.63
2019-02-20T09:06:29.931Z,6.43
2019-02-20T09:08:56.585Z,5.90
2019-02-20T09:11:22.945Z,5.60
2019-02-20T09:13:49.574Z,4.83
2019-02-20T09:16:16.210Z,6.03
2019-02-20T09:18:42.825Z,4.87
2019-02-20T09:21:09.121Z,5.75
2019-02-20T09:23:35.733Z,5.37
2019-02-20T09:26:03.907Z,6.27
2019-02-20T09:28:30.546Z,7.58
2019-02-20T09:30:59.268Z,5.93
2019-02-20T09:33:25.526Z,7.20
2019-02-20T09:35:54.056Z,6.73
2019-02-20T09:40:46.633Z,7.97
2019-02-20T09:43:13.275Z,7.00
2019-02-20T09:45:42.927Z,5.90
2019-02-20T09:48:09.081Z,5.80
2019-02-20T09:50:36.743Z,5.77
2019-02-20T09:53:03.386Z,4.77
2019-02-20T09:55:29.950Z,4.47
2019-02-20T09:57:57.034Z,4.37
2019-02-20T10:00:23.632Z,3.80
2019-02-20T10:02:51.517Z,4.80
2019-02-20T10:05:17.917Z,3.70
2019-02-20T10:07:44.524Z,3.00
2019-02-20T10:10:11.461Z,3.10
2019-02-20T10:12:37.790Z,2.73
2019-02-20T10:15:16.070Z,3.30
2019-02-20T10:17:42.336Z,2.87
2019-02-20T10:20:09.857Z,2.80
2019-02-20T10:22:36.562Z,2.77
2019-02-20T10:25:04.501Z,2.60
2019-02-20T10:27:31.123Z,2.20
2019-02-20T10:29:57.780Z,2.60
2019-02-20T10:32:24.409Z,2.30
2019-02-20T10:34:50.691Z,2.20
2019-02-20T10:37:18.870Z,2.20
2019-02-20T10:39:47.373Z,1.93
2019-02-20T10:42:13.641Z,2.37
2019-02-20T10:44:40.250Z,1.90
2019-02-20T10:47:07.701Z,2.60
2019-02-20T10:49:34.336Z,2.10
2019-02-20T10:52:00.983Z,2.30
2019-02-20T10:54:29.174Z,2.63
2019-02-20T10:56:55.814Z,3.23
2019-02-20T10:59:22.118Z,2.70
2019-02-20T11:01:48.378Z,2.27
2019-02-20T11:04:14.769Z,2.30
2019-02-20T11:06:41.410Z,2.20
2019-02-20T11:09:08.109Z,1.80
2019-02-20T11:11:34.718Z,2.03
2019-02-20T11:14:01.010Z,2.37
2019-02-20T11:16:27.286Z,2.07
2019-02-20T11:18:53.570Z,2.27
2019-02-20T11:21:20.218Z,2.07
2019-02-20T11:23:46.881Z,2.40
2019-02-20T11:26:18.355Z,2.03
2019-02-20T11:28:41.962Z,2.37
2019-02-20T11:31:08.240Z,2.17
2019-02-20T11:33:35.274Z,2.03
2019-02-20T11:36:01.912Z,2.23
2019-02-20T11:38:28.182Z,2.37
2019-02-20T11:40:54.855Z,2.50
2019-02-20T11:43:21.393Z,2.20
2019-02-20T11:45:49.197Z,2.27
2019-02-20T11:48:16.062Z,2.00
2019-02-20T11:50:42.738Z,2.10
2019-02-20T11:53:09.364Z,2.07
2019-02-20T11:55:36.003Z,1.97
2019-02-20T11:58:02.219Z,2.20
2019-02-20T12:00:28.842Z,2.57
2019-02-20T12:02:55.116Z,2.13
2019-02-20T12:05:21.381Z,1.80
2019-02-20T12:07:49.033Z,1.67
2019-02-20T12:10:16.790Z,1.97
2019-02-20T12:12:43.424Z,1.87
2019-02-20T12:15:10.038Z,2.00
2019-02-20T12:17:36.766Z,2.00
2019-02-20T12:20:06.826Z,1.73
2019-02-20T12:22:33.451Z,1.93
2019-02-20T12:25:00.153Z,2.60
2019-02-20T12:27:26.631Z,3.10
2019-02-20T12:29:53.286Z,3.17
2019-02-20T12:32:19.901Z,3.90
2019-02-20T12:34:46.599Z,3.90
2019-02-20T12:37:12.869Z,4.00
2019-02-20T12:39:39.145Z,3.80
2019-02-20T12:42:05.615Z,3.37
2019-02-20T12:44:32.344Z,4.07
2019-02-20T12:46:58.630Z,3.70
2019-02-20T12:49:26.743Z,3.47
2019-02-20T12:51:53.375Z,4.03
2019-02-20T12:54:19.638Z,3.50
2019-02-20T12:56:46.307Z,3.23
2019-02-20T12:59:12.920Z,3.57
2019-02-20T13:01:39.223Z,3.33
2019-02-20T13:04:05.485Z,3.60
2019-02-20T13:06:32.117Z,3.10
2019-02-20T13:08:58.745Z,3.13
2019-02-20T13:11:27.277Z,2.80
2019-02-20T13:13:53.546Z,3.43
2019-02-20T13:16:20.217Z,3.73
2019-02-20T13:18:46.853Z,3.07
2019-02-20T13:21:13.483Z,3.27
2019-02-20T13:23:39.746Z,3.23
2019-02-20T13:26:06.357Z,3.23
2019-02-20T13:28:32.990Z,3.00
2019-02-20T13:30:59.628Z,3.10
2019-02-20T13:33:26.266Z,2.53
2019-02-20T13:35:52.548Z,2.50
2019-02-20T13:38:19.183Z,3.47
2019-02-20T13:40:45.445Z,3.37
2019-02-20T13:43:12.089Z,3.07
2019-02-20T13:45:39.093Z,2.93
2019-02-20T13:48:05.935Z,3.07
2019-02-20T13:56:28.398Z,2.80
2019-02-20T13:58:55.242Z,3.27
2019-02-20T14:01:21.533Z,3.27
2019-02-20T14:03:48.106Z,3.53
2019-02-20T14:06:15.156Z,3.47
2019-02-20T14:08:41.769Z,3.53
2019-02-20T14:11:08.725Z,3.63
2019-02-20T14:13:35.003Z,3.40
2019-02-20T14:16:01.659Z,3.10
2019-02-20T14:18:28.294Z,3.53
2019-02-20T14:20:54.942Z,3.10
2019-02-20T14:23:21.571Z,4.00
2019-02-20T14:25:47.903Z,4.10
2019-02-20T14:28:14.796Z,4.20
2019-02-20T14:30:41.730Z,4.20
2019-02-20T14:33:08.637Z,3.50
2019-02-20T14:35:34.955Z,3.93
2019-02-20T14:38:01.591Z,3.03
2019-02-20T14:40:28.450Z,3.83
2019-02-20T14:42:55.049Z,3.90
2019-02-20T14:45:21.301Z,3.53
2019-02-20T14:47:47.577Z,3.63
2019-02-20T14:50:14.252Z,3.67
2019-02-20T14:52:40.509Z,4.03
2019-02-20T14:55:07.842Z,3.93
2019-02-20T14:57:34.274Z,4.30
2019-02-20T15:00:00.936Z,3.53
2019-02-20T15:02:27.544Z,4.13
2019-02-20T15:04:54.194Z,4.10
2019-02-20T15:07:20.766Z,3.30
2019-02-20T15:09:47.404Z,3.50
2019-02-20T15:12:14.224Z,3.53
2019-02-20T15:14:40.516Z,4.30
2019-02-20T15:17:07.961Z,4.67
2019-02-20T15:19:34.645Z,3.73
2019-02-20T15:22:01.271Z,3.50
2019-02-20T15:24:27.901Z,4.27
2019-02-20T15:26:54.179Z,3.67
2019-02-20T15:29:21.098Z,3.97
2019-02-20T15:31:48.050Z,3.17
2019-02-20T15:34:14.694Z,3.50
2019-02-20T15:36:41.323Z,3.53
2019-02-20T15:39:08.038Z,3.20
2019-02-20T15:41:34.301Z,3.50
2019-02-20T15:44:01.214Z,3.10
2019-02-20T15:46:29.247Z,4.27
2019-02-20T15:48:55.898Z,3.77
2019-02-20T15:51:23.018Z,3.80
2019-02-20T15:53:49.630Z,3.63
2019-02-20T15:56:16.248Z,3.33
2019-02-20T15:58:43.063Z,3.73
2019-02-20T16:01:11.547Z,3.90
2019-02-20T16:03:38.261Z,3.63
2019-02-20T16:06:04.879Z,3.70
2019-02-20T16:08:31.530Z,3.33
2019-02-20T16:10:58.758Z,3.97
2019-02-20T16:13:26.467Z,3.17
2019-02-20T16:15:52.729Z,3.90
2019-02-20T16:18:20.011Z,3.70
2019-02-20T16:20:46.712Z,3.60
2019-02-20T16:23:13.329Z,3.60
2019-02-20T16:25:39.606Z,3.53
2019-02-20T16:28:07.033Z,3.73
2019-02-20T16:30:33.989Z,4.07
2019-02-20T16:33:00.960Z,3.47
2019-02-20T16:35:27.653Z,3.67
2019-02-20T16:37:53.922Z,3.47
2019-02-20T16:40:20.553Z,3.40
2019-02-20T16:42:47.168Z,3.33
2019-02-20T16:45:16.322Z,3.37
2019-02-20T16:47:43.378Z,3.53
2019-02-20T16:50:09.881Z,3.40
2019-02-20T16:52:36.486Z,3.27
2019-02-20T16:55:03.390Z,3.50
2019-02-20T16:57:31.366Z,3.00
2019-02-20T16:59:59.941Z,2.80
2019-02-20T17:02:26.453Z,4.20
2019-02-20T17:04:59.223Z,3.00
2019-02-20T17:07:21.494Z,3.43
2019-02-20T17:09:48.695Z,3.33
2019-02-20T17:12:15.417Z,3.23
2019-02-20T17:14:41.704Z,2.87
2019-02-20T17:17:08.338Z,3.30
2019-02-20T17:19:34.636Z,3.00
2019-02-20T17:22:01.265Z,3.43
2019-02-20T17:24:28.015Z,3.60
2019-02-20T17:26:54.485Z,4.20
2019-02-20T17:29:20.996Z,3.73
2019-02-20T17:31:47.259Z,3.70
2019-02-20T17:34:14.752Z,3.47
2019-02-20T17:36:41.385Z,3.43
2019-02-20T17:39:08.614Z,3.80
2019-02-20T17:41:34.898Z,3.40
2019-02-20T17:44:01.165Z,3.97
2019-02-20T17:46:27.434Z,4.73
2019-02-20T17:48:54.153Z,4.73
2019-02-20T17:51:21.086Z,4.63
2019-02-20T17:53:51.082Z,4.60
2019-02-20T17:56:17.362Z,4.37
2019-02-20T17:58:43.990Z,4.43
2019-02-20T18:01:12.551Z,4.13
2019-02-20T18:09:40.902Z,4.57
2019-02-20T18:12:07.558Z,4.07
2019-02-20T18:14:34.187Z,3.70
2019-02-20T18:17:01.118Z,3.90
2019-02-20T18:19:27.762Z,4.33
2019-02-20T18:21:54.369Z,4.27
2019-02-20T18:24:21.126Z,4.07
2019-02-20T18:26:47.374Z,4.00
2019-02-20T18:29:14.428Z,4.10
2019-02-20T18:31:41.285Z,4.20
2019-02-20T18:34:07.960Z,3.97
2019-02-20T18:36:34.596Z,4.07
2019-02-20T18:39:01.272Z,3.67
2019-02-20T18:41:27.905Z,3.70
2019-02-20T18:43:54.169Z,4.60
2019-02-20T18:46:20.447Z,4.33
2019-02-20T18:48:47.117Z,4.03
2019-02-20T18:51:13.398Z,3.97
2019-02-20T18:53:40.059Z,4.47
2019-02-20T18:56:06.760Z,4.70
2019-02-20T18:58:34.274Z,3.93
2019-02-20T19:01:02.996Z,4.60
2019-02-20T19:03:29.258Z,4.27
2019-02-20T19:05:55.896Z,4.80
2019-02-20T19:08:30.549Z,5.00
2019-02-20T19:11:00.062Z,4.83
2019-02-20T19:13:35.737Z,5.03
2019-02-20T19:16:25.268Z,5.07
2019-02-20T19:19:02.454Z,4.80
2019-02-20T19:21:31.617Z,4.53
2019-02-20T19:24:03.002Z,4.20
2019-02-20T19:26:36.848Z,4.73
2019-02-20T19:29:12.702Z,4.77
2019-02-20T19:31:48.532Z,4.50
2019-02-20T19:34:27.658Z,4.57
2019-02-20T19:36:58.955Z,5.30
2019-02-20T19:39:27.506Z,4.87
2019-02-20T19:41:58.787Z,5.30
2019-02-20T19:44:40.787Z,5.40
2019-02-20T19:47:16.618Z,4.83
2019-02-20T19:50:10.729Z,4.30
2019-02-20T19:52:45.097Z,4.10
2019-02-20T19:55:22.977Z,3.90
2019-02-20T19:57:59.057Z,6.15
2019-02-20T20:00:29.154Z,4.87
2019-02-20T20:02:57.703Z,4.53
2019-02-20T20:05:42.661Z,4.20
2019-02-20T20:08:29.068Z,3.97
2019-02-20T20:11:03.495Z,4.30
2019-02-20T20:13:37.882Z,4.80
2019-02-20T20:16:14.207Z,4.23
2019-02-20T20:18:51.681Z,4.17
2019-02-20T20:21:24.851Z,4.10
2019-02-20T20:24:12.182Z,3.97
2019-02-20T20:26:58.695Z,4.40
2019-02-20T20:29:45.305Z,3.57
2019-02-20T20:32:33.329Z,3.73
2019-02-20T20:35:04.860Z,4.77
2019-02-20T20:37:33.904Z,5.03
2019-02-20T20:40:13.082Z,5.03
2019-02-20T20:42:41.667Z,4.33
2019-02-20T20:45:26.565Z,5.03
2019-02-20T20:47:55.086Z,4.87
2019-02-20T20:50:50.390Z,5.00
2019-02-20T20:53:32.223Z,5.70
2019-02-20T20:56:29.757Z,4.77
2019-02-20T20:59:17.140Z,4.90
2019-02-20T21:01:41.865Z,4.50
2019-02-20T21:04:39.040Z,4.10
2019-02-20T21:07:20.963Z,4.70
2019-02-20T21:09:49.501Z,6.28
2019-02-20T21:12:48.598Z,5.47
2019-02-20T21:15:41.499Z,4.70
2019-02-20T21:18:21.999Z,4.40
2019-02-20T21:21:00.809Z,4.50
2019-02-20T21:23:41.270Z,4.50
2019-02-20T21:26:16.986Z,5.50
2019-02-20T21:29:03.697Z,5.17
2019-02-20T21:31:37.973Z,4.97
2019-02-20T21:34:24.409Z,6.07
2019-02-20T21:36:54.540Z,5.43
2019-02-20T21:39:33.450Z,4.43
2019-02-20T21:42:24.546Z,5.10
2019-02-20T21:44:56.075Z,4.10
2019-02-20T21:47:24.664Z,4.67
2019-02-20T21:50:08.413Z,4.80
2019-02-20T21:52:42.970Z,4.83
2019-02-20T21:55:27.903Z,4.73
2019-02-20T21:58:06.877Z,5.20
2019-02-20T22:00:42.866Z,4.50
2019-02-20T22:03:11.409Z,4.90
2019-02-20T22:05:39.930Z,4.53
2019-02-20T22:08:26.545Z,4.50
2019-02-20T22:10:57.832Z,4.50
2019-02-20T22:13:48.759Z,4.60
2019-02-20T22:16:30.754Z,4.87
2019-02-20T22:19:05.577Z,5.10
2019-02-20T22:21:50.590Z,4.87
2019-02-20T22:24:30.945Z,5.00
2019-02-20T22:27:02.301Z,5.90
2019-02-20T22:29:35.121Z,4.90
2019-02-20T22:32:18.615Z,4.43
2019-02-20T22:35:11.077Z,5.40
2019-02-20T22:38:06.682Z,5.20
2019-02-20T22:40:42.526Z,5.70
2019-02-20T22:43:14.053Z,6.00
2019-02-20T22:45:57.506Z,5.83
2019-02-20T22:48:31.890Z,5.83
2019-02-20T22:51:18.634Z,5.97
2019-02-20T22:53:51.492Z,6.17
2019-02-20T22:56:23.017Z,6.33
2019-02-20T22:58:55.871Z,5.90
2019-02-20T23:01:34.985Z,6.07
2019-02-20T23:04:09.125Z,6.10
2019-02-20T23:06:54.270Z,5.17
2019-02-20T23:09:22.791Z,5.87
2019-02-20T23:12:06.807Z,5.33
2019-02-20T23:14:51.912Z,6.43
2019-02-20T23:17:18.542Z,6.40
2019-02-20T23:19:45.182Z,7.17
2019-02-20T23:22:11.817Z,7.10
2019-02-20T23:24:38.727Z,7.07
2019-02-20T23:27:04.993Z,6.73
2019-02-20T23:29:31.639Z,6.90
2019-02-20T23:31:57.903Z,6.60
2019-02-20T23:34:24.198Z,7.57
2019-02-20T23:36:50.838Z,7.10
2019-02-20T23:39:17.497Z,7.43
2019-02-20T23:41:44.109Z,7.03
2019-02-20T23:44:10.645Z,7.30
2019-02-20T23:46:37.288Z,7.07
2019-02-20T23:49:03.926Z,7.27
2019-02-20T23:51:30.178Z,7.20
2019-02-20T23:53:56.493Z,7.77
2019-02-20T23:56:23.114Z,7.07
2019-02-20T23:58:49.745Z,7.47
